createdAt,value
2022-10-06T00:00:15.098Z,77
2022-10-06T00:05:15.106Z,77
2022-10-06T00:10:15.105Z,77
2022-10-06T00:15:15.104Z,78
2022-10-06T00:20:15.097Z,78
2022-10-06T00:25:15.111Z,79
2022-10-06T00:30:15.101Z,79
2022-10-06T00:35:15.103Z,79
2022-10-06T00:40:15.098Z,78
2022-10-06T00:45:15.098Z,78
2022-10-06T00:50:15.113Z,78
2022-10-06T00:55:15.114Z,78
2022-10-06T01:00:15.093Z,78
2022-10-06T01:05:15.099Z,79
2022-10-06T01:10:15.105Z,79
2022-10-06T01:15:15.101Z,79
2022-10-06T01:20:15.098Z,79
2022-10-06T01:25:15.109Z,79
2022-10-06T01:30:15.100Z,79
2022-10-06T01:35:15.105Z,79
2022-10-06T01:40:15.100Z,79
2022-10-06T01:45:15.107Z,79
2022-10-06T01:50:15.099Z,79
2022-10-06T01:55:15.102Z,79
2022-10-06T02:00:15.096Z,79
2022-10-06T02:05:15.104Z,79
2022-10-06T02:10:15.093Z,79
2022-10-06T02:15:15.114Z,79
2022-10-06T02:20:15.108Z,79
2022-10-06T02:25:15.113Z,79
2022-10-06T02:30:15.113Z,80
2022-10-06T02:35:15.138Z,80
2022-10-06T02:40:15.258Z,80
2022-10-06T02:45:15.109Z,80
2022-10-06T02:50:15.096Z,80
2022-10-06T02:55:15.114Z,80
2022-10-06T03:00:15.099Z,80
2022-10-06T03:05:15.105Z,80
2022-10-06T03:10:15.098Z,80
2022-10-06T03:15:15.101Z,80
2022-10-06T03:20:15.109Z,80
2022-10-06T03:25:15.101Z,80
2022-10-06T03:30:15.105Z,80
2022-10-06T03:35:15.101Z,80
2022-10-06T03:40:15.114Z,80
2022-10-06T03:45:15.113Z,80
2022-10-06T03:50:15.098Z,80
2022-10-06T03:55:15.116Z,80
2022-10-06T04:00:15.112Z,80
2022-10-06T04:05:15.113Z,80
2022-10-06T04:10:15.100Z,80
2022-10-06T04:15:15.103Z,80
2022-10-06T04:20:15.101Z,80
2022-10-06T04:25:15.111Z,81
2022-10-06T04:30:15.103Z,83
2022-10-06T04:35:15.115Z,84
2022-10-06T04:40:15.097Z,84
2022-10-06T04:45:15.102Z,84
2022-10-06T04:50:15.099Z,84
2022-10-06T04:55:15.113Z,84
2022-10-06T05:00:15.320Z,84
2022-10-06T05:05:15.112Z,84
2022-10-06T05:10:15.346Z,84
2022-10-06T05:15:15.108Z,85
2022-10-06T05:20:15.096Z,85
2022-10-06T05:25:15.101Z,85
2022-10-06T05:30:15.099Z,85
2022-10-06T05:35:15.101Z,85
2022-10-06T05:40:15.110Z,85
2022-10-06T05:45:15.103Z,85
2022-10-06T05:50:15.101Z,85
2022-10-06T05:55:15.101Z,85
2022-10-06T06:00:15.109Z,85
2022-10-06T06:05:15.112Z,84
2022-10-06T06:10:15.111Z,84
2022-10-06T06:15:15.109Z,84
2022-10-06T06:20:15.096Z,83
2022-10-06T06:25:15.102Z,83
2022-10-06T06:30:15.094Z,83
2022-10-06T06:35:15.111Z,83
2022-10-06T06:40:15.102Z,82
2022-10-06T06:45:15.100Z,82
2022-10-06T06:50:15.096Z,82
2022-10-06T06:55:15.103Z,82
2022-10-06T07:00:15.101Z,81
2022-10-06T07:05:15.110Z,81
2022-10-06T07:10:15.101Z,82
2022-10-06T07:15:15.108Z,81
2022-10-06T07:20:15.103Z,82
2022-10-06T07:25:15.110Z,82
2022-10-06T07:30:15.097Z,82
2022-10-06T07:35:15.099Z,80
2022-10-06T07:40:15.100Z,80
2022-10-06T07:45:15.117Z,79
2022-10-06T07:50:15.105Z,78
2022-10-06T07:55:15.115Z,77
2022-10-06T08:00:15.138Z,77
2022-10-06T08:05:15.104Z,76
2022-10-06T08:10:15.093Z,76
2022-10-06T08:15:15.118Z,75
2022-10-06T08:20:15.103Z,75
2022-10-06T08:25:15.542Z,74
2022-10-06T08:30:15.103Z,73
2022-10-06T08:35:15.096Z,72
2022-10-06T08:40:15.115Z,70
2022-10-06T08:45:15.111Z,69
2022-10-06T08:50:15.097Z,69
2022-10-06T08:55:15.109Z,69
2022-10-06T09:00:18.013Z,70
2022-10-06T09:05:15.105Z,70
2022-10-06T09:10:15.111Z,69
2022-10-06T09:15:15.102Z,69
2022-10-06T09:20:15.101Z,67
2022-10-06T09:25:15.096Z,67
2022-10-06T09:30:15.101Z,67
2022-10-06T09:35:15.098Z,68
2022-10-06T09:40:15.112Z,66
2022-10-06T09:45:15.103Z,65
2022-10-06T09:50:15.101Z,65
2022-10-06T09:55:15.111Z,65
2022-10-06T10:00:15.100Z,63
2022-10-06T10:05:15.111Z,63
2022-10-06T10:10:15.178Z,63
2022-10-06T10:15:15.111Z,63
2022-10-06T10:20:15.111Z,62
2022-10-06T10:25:15.106Z,61
2022-10-06T10:30:15.203Z,61
2022-10-06T10:35:15.118Z,59
2022-10-06T10:40:15.100Z,62
2022-10-06T10:45:15.109Z,60
2022-10-06T10:50:15.106Z,57
2022-10-06T10:55:15.103Z,56
2022-10-06T11:00:15.103Z,58
2022-10-06T11:05:15.109Z,59
2022-10-06T11:10:15.116Z,56
2022-10-06T11:15:15.114Z,58
2022-10-06T11:20:15.114Z,57
2022-10-06T11:25:15.105Z,57
2022-10-06T11:30:15.093Z,57
2022-10-06T11:35:15.103Z,56
2022-10-06T11:40:15.104Z,56
2022-10-06T11:45:15.102Z,57
2022-10-06T11:50:15.095Z,56
2022-10-06T11:55:15.116Z,56
2022-10-06T12:00:15.099Z,57
2022-10-06T12:10:15.098Z,56
2022-10-06T12:20:15.098Z,54
2022-10-06T12:25:15.102Z,50
2022-10-06T12:30:15.100Z,47
2022-10-06T12:35:15.113Z,44
2022-10-06T12:40:15.105Z,45
2022-10-06T12:45:15.107Z,46
2022-10-06T12:50:15.097Z,46
2022-10-06T12:55:15.099Z,47
2022-10-06T13:00:15.118Z,46
2022-10-06T13:05:15.108Z,48
2022-10-06T13:10:15.096Z,47
2022-10-06T13:15:15.100Z,48
2022-10-06T13:20:15.113Z,49
2022-10-06T13:25:15.113Z,50
2022-10-06T13:30:15.115Z,48
2022-10-06T13:35:15.125Z,50
2022-10-06T13:40:21.649Z,49
2022-10-06T13:45:15.113Z,48
2022-10-06T13:50:19.561Z,48
2022-10-06T13:55:15.125Z,48
2022-10-06T14:00:15.118Z,47
2022-10-06T14:05:15.131Z,47
2022-10-06T14:10:15.190Z,48
2022-10-06T14:15:15.127Z,45
2022-10-06T14:20:15.131Z,45
2022-10-06T14:25:15.108Z,45
2022-10-06T14:30:15.104Z,45
2022-10-06T14:35:15.104Z,46
2022-10-06T14:40:15.099Z,46
2022-10-06T14:45:15.097Z,46
2022-10-06T14:50:15.098Z,46
2022-10-06T14:55:15.106Z,46
2022-10-06T15:00:15.102Z,44
2022-10-06T15:05:15.109Z,44
2022-10-06T15:10:15.098Z,44
2022-10-06T15:15:15.111Z,45
2022-10-06T15:20:15.094Z,46
2022-10-06T15:25:15.104Z,46
2022-10-06T15:30:15.093Z,47
2022-10-06T15:35:15.103Z,47
2022-10-06T15:40:15.097Z,48
2022-10-06T15:45:15.094Z,49
2022-10-06T15:50:18.596Z,51
2022-10-06T15:55:15.107Z,50
2022-10-06T16:00:15.098Z,52
2022-10-06T16:05:15.097Z,56
2022-10-06T16:10:15.105Z,59
2022-10-06T16:15:15.103Z,61
2022-10-06T16:20:15.112Z,63
2022-10-06T16:25:15.101Z,64
2022-10-06T16:30:15.116Z,66
2022-10-06T16:35:18.286Z,67
2022-10-06T16:40:15.109Z,69
2022-10-06T16:45:15.102Z,69
2022-10-06T16:50:15.102Z,71
2022-10-06T16:55:15.104Z,72
2022-10-06T17:00:15.101Z,73
2022-10-06T17:05:15.097Z,73
2022-10-06T17:10:20.369Z,74
2022-10-06T17:15:15.115Z,74
2022-10-06T17:20:15.111Z,75
2022-10-06T17:25:15.102Z,76
2022-10-06T17:30:15.098Z,75
2022-10-06T17:35:15.102Z,76
2022-10-06T17:40:15.114Z,76
2022-10-06T17:45:18.940Z,75
2022-10-06T17:50:15.111Z,76
2022-10-06T17:55:15.120Z,77
2022-10-06T18:00:15.103Z,77
2022-10-06T18:05:15.099Z,77
2022-10-06T18:10:15.106Z,78
2022-10-06T18:15:15.112Z,78
2022-10-06T18:20:15.097Z,78
2022-10-06T18:25:15.102Z,78
2022-10-06T18:30:15.098Z,78
2022-10-06T18:40:15.101Z,79
2022-10-06T18:45:15.102Z,79
2022-10-06T18:50:15.097Z,79
2022-10-06T18:55:15.097Z,79
2022-10-06T19:00:15.104Z,78
2022-10-06T19:05:15.106Z,78
2022-10-06T19:10:15.107Z,79
2022-10-06T19:15:19.421Z,79
2022-10-06T19:20:15.105Z,79
2022-10-06T19:25:15.107Z,79
2022-10-06T19:30:15.092Z,79
2022-10-06T19:35:15.103Z,79
2022-10-06T19:40:15.103Z,79
2022-10-06T19:45:15.102Z,79
2022-10-06T19:50:15.096Z,79
2022-10-06T19:55:15.109Z,80
2022-10-06T20:00:15.095Z,79
2022-10-06T20:05:15.099Z,79
2022-10-06T20:10:15.099Z,80
2022-10-06T20:15:15.107Z,80
2022-10-06T20:20:15.097Z,80
2022-10-06T20:25:15.104Z,80
2022-10-06T20:30:15.094Z,81
2022-10-06T20:35:15.109Z,81
2022-10-06T20:40:15.102Z,81
2022-10-06T20:45:15.099Z,81
2022-10-06T20:50:15.102Z,81
2022-10-06T20:55:15.114Z,82
2022-10-06T21:00:15.099Z,82
2022-10-06T21:05:15.155Z,83
2022-10-06T21:10:15.135Z,82
2022-10-06T21:15:15.148Z,82
2022-10-06T21:20:15.141Z,82
2022-10-06T21:25:15.149Z,83
2022-10-06T21:30:15.145Z,83
2022-10-06T21:35:15.157Z,83
2022-10-06T21:40:15.145Z,83
2022-10-06T21:45:15.157Z,83
2022-10-06T21:50:15.153Z,83
2022-10-06T21:55:15.162Z,83
2022-10-06T22:00:15.142Z,84
2022-10-06T22:05:15.157Z,84
2022-10-06T22:10:15.158Z,83
2022-10-06T22:15:15.143Z,83
2022-10-06T22:20:15.148Z,83
2022-10-06T22:25:15.146Z,83
2022-10-06T22:30:15.145Z,83
2022-10-06T22:35:15.221Z,83
2022-10-06T22:40:15.158Z,83
2022-10-06T22:45:15.154Z,82
2022-10-06T22:50:15.164Z,82
2022-10-06T22:55:15.153Z,82
2022-10-06T23:00:15.164Z,83
2022-10-06T23:05:15.177Z,83
2022-10-06T23:10:15.152Z,84
2022-10-06T23:15:15.168Z,84
2022-10-06T23:20:15.145Z,84
2022-10-06T23:25:15.163Z,84
2022-10-06T23:30:15.138Z,84
2022-10-06T23:35:15.154Z,84
2022-10-06T23:40:15.144Z,84
2022-10-06T23:45:15.153Z,84
2022-10-06T23:50:15.137Z,84
2022-10-06T23:55:15.150Z,84
